Main page
METAR-TAF:

METAR-TAF

Airports :

Najaf, Iraq

Al Najaf International Airport

latitude: 31-59-23N, longitude: 44-24-15E, elevation: 31 m

Current weather observation

The report was made 13 minutes ago, at 23:00 UTC
Wind 10 kt from the Northwest
Temperature 33°C
Humidity 24%
Pressure 1003 hPa
Visibility: 7000 m

METAR: ORNI 232300Z 32010KT 7000 NSC 33/10 Q1003 NOSIG

Time: 02:13 (23:13 UTC)

Forecast

The report was made 7 hours and 13 minutes ago, at 16:00 UTC
Forecast valid from 23 at 18 UTC to 24 at 18 UTC
Wind 8 kt from the North/Northwest
Visibility: 6000 m

TAF: ORNI 231600Z 2318/2418 34008KT 6000 NSC

Weather observations and forecasts of more than 4000 airports (METAR and TAF reports).

The available stations are represented by yellow and red dots on the map.

Hover mouse over dot to see the name of the station.

Then click to see weather observations and forecasts.

To change the map : click on the green buttons with a black cross to zoom in, on the green button with a dash to zoom out, or on the green arrows for adjacent maps.


METAR-TAF: